createdAt,value
2018-09-02T00:01:12.882Z,12.08
2018-09-02T00:03:43.493Z,12.12
2018-09-02T00:08:53.689Z,12.23
2018-09-02T00:11:36.871Z,11.94
2018-09-02T00:14:05.886Z,12.24
2018-09-02T00:16:42.392Z,12.27
2018-09-02T00:19:12.818Z,12.23
2018-09-02T00:21:42.849Z,12.28
2018-09-02T00:24:14.794Z,12.27
2018-09-02T00:29:26.438Z,12.19
2018-09-02T00:31:55.787Z,12.20
2018-09-02T00:34:24.693Z,12.18
2018-09-02T00:37:04.187Z,11.78
2018-09-02T00:39:36.460Z,12.13
2018-09-02T00:42:14.499Z,11.50
2018-09-02T00:47:27.624Z,12.07
2018-09-02T00:50:12.559Z,12.02
2018-09-02T00:52:56.959Z,11.98
2018-09-02T00:55:25.684Z,11.90
2018-09-02T00:58:05.658Z,11.88
2018-09-02T01:00:40.394Z,11.87
2018-09-02T01:03:10.746Z,11.86
2018-09-02T01:05:39.742Z,11.82
2018-09-02T01:08:27.941Z,11.85
2018-09-02T01:11:05.038Z,11.85
2018-09-02T01:13:34.195Z,11.85
2018-09-02T01:16:03.225Z,11.83
2018-09-02T01:18:32.370Z,11.59
2018-09-02T01:23:56.551Z,11.83
2018-09-02T01:26:36.356Z,11.83
2018-09-02T01:29:12.054Z,11.83
2018-09-02T01:31:41.592Z,11.82
2018-09-02T01:34:29.042Z,11.83
2018-09-02T01:37:05.431Z,11.82
2018-09-02T01:39:34.464Z,11.80
2018-09-02T01:45:08.678Z,11.77
2018-09-02T01:47:37.822Z,11.79
2018-09-02T01:50:11.256Z,11.81
2018-09-02T01:52:40.033Z,11.82
2018-09-02T01:55:17.788Z,11.75
2018-09-02T01:57:53.707Z,11.82
2018-09-02T02:00:22.402Z,11.84
2018-09-02T02:03:08.534Z,11.83
2018-09-02T02:05:44.554Z,11.81
2018-09-02T02:08:36.917Z,11.79
2018-09-02T02:11:18.480Z,11.75
2018-09-02T02:13:50.230Z,11.73
2018-09-02T02:16:22.287Z,11.72
2018-09-02T02:18:53.557Z,11.71
2018-09-02T02:21:22.628Z,11.69
2018-09-02T02:23:51.397Z,11.65
2018-09-02T02:26:28.965Z,11.66
2018-09-02T02:32:00.928Z,11.60
2018-09-02T02:34:37.846Z,11.62
2018-09-02T02:37:23.266Z,11.30
2018-09-02T02:39:52.757Z,11.58
2018-09-02T02:45:15.822Z,11.60
2018-09-02T02:47:44.881Z,11.62
2018-09-02T02:50:14.138Z,11.59
2018-09-02T02:53:01.584Z,11.57
2018-09-02T02:55:30.842Z,11.56
2018-09-02T02:58:12.068Z,11.53
2018-09-02T03:00:40.988Z,11.53
2018-09-02T03:03:10.039Z,11.41
2018-09-02T03:05:39.206Z,11.49
2018-09-02T03:08:10.592Z,11.45
2018-09-02T03:10:39.761Z,11.49
2018-09-02T03:13:09.109Z,11.47
2018-09-02T03:15:38.245Z,11.44
2018-09-02T03:18:09.644Z,11.49
2018-09-02T03:20:39.167Z,11.51
2018-09-02T03:23:08.066Z,11.50
2018-09-02T03:25:37.608Z,11.51
2018-09-02T03:28:20.540Z,11.47
2018-09-02T03:30:50.754Z,11.46
2018-09-02T03:33:20.200Z,11.43
2018-09-02T03:35:49.987Z,11.04
2018-09-02T03:38:31.470Z,11.37
2018-09-02T03:41:01.328Z,11.38
2018-09-02T03:43:39.331Z,11.35
2018-09-02T03:46:26.742Z,11.30
2018-09-02T03:48:56.286Z,11.27
2018-09-02T03:51:25.804Z,11.23
2018-09-02T03:53:55.167Z,11.19
2018-09-02T03:56:27.230Z,11.17
2018-09-02T03:59:07.003Z,11.15
2018-09-02T04:01:36.270Z,11.13
2018-09-02T04:04:05.406Z,11.12
2018-09-02T04:06:36.038Z,11.11
2018-09-02T04:09:07.661Z,11.08
2018-09-02T04:14:24.434Z,11.07
2018-09-02T04:16:54.194Z,11.18
2018-09-02T04:19:25.999Z,11.19
2018-09-02T04:21:58.084Z,11.15
2018-09-02T04:24:29.582Z,11.12
2018-09-02T04:27:02.478Z,11.12
2018-09-02T04:29:49.058Z,11.08
2018-09-02T04:32:17.997Z,11.05
2018-09-02T04:34:47.143Z,11.02
2018-09-02T04:37:18.374Z,11.00
2018-09-02T04:39:48.202Z,11.00
2018-09-02T04:45:10.515Z,11.00
2018-09-02T04:47:40.290Z,11.00
2018-09-02T04:50:23.303Z,10.99
2018-09-02T04:52:51.990Z,11.00
2018-09-02T04:55:21.519Z,10.86
2018-09-02T04:57:53.424Z,10.99
2018-09-02T05:00:26.118Z,10.99
2018-09-02T05:03:00.398Z,11.01
2018-09-02T05:05:33.974Z,11.03
2018-09-02T05:08:03.814Z,11.09
2018-09-02T05:10:32.942Z,11.11
2018-09-02T05:13:14.015Z,11.12
2018-09-02T05:15:45.838Z,11.15
2018-09-02T05:21:01.627Z,11.34
2018-09-02T05:23:40.947Z,11.37
2018-09-02T05:26:09.900Z,11.42
2018-09-02T05:28:39.834Z,11.52
2018-09-02T05:31:08.802Z,11.57
2018-09-02T05:33:43.018Z,11.62
2018-09-02T05:36:12.590Z,11.56
2018-09-02T05:38:42.187Z,11.68
2018-09-02T05:41:13.238Z,11.76
2018-09-02T05:43:44.410Z,11.80
2018-09-02T05:46:17.410Z,11.86
2018-09-02T05:48:47.499Z,11.52
2018-09-02T05:51:16.543Z,12.03
2018-09-02T05:53:53.680Z,11.98
2018-09-02T05:56:30.493Z,12.15
2018-09-02T05:59:09.940Z,12.22
2018-09-02T06:01:43.522Z,12.26
2018-09-02T06:04:13.919Z,12.30
2018-09-02T06:06:43.109Z,11.97
2018-09-02T06:09:12.471Z,12.43
2018-09-02T06:11:42.134Z,12.50
2018-09-02T06:17:11.607Z,12.71
2018-09-02T06:19:40.983Z,12.82
2018-09-02T06:22:14.030Z,12.89
2018-09-02T06:24:43.828Z,12.97
2018-09-02T06:27:17.549Z,13.07
2018-09-02T06:29:47.002Z,13.20
2018-09-02T06:32:18.346Z,13.34
2018-09-02T06:34:52.418Z,13.44
2018-09-02T06:37:22.601Z,13.58
2018-09-02T06:39:58.727Z,13.50
2018-09-02T06:45:22.483Z,13.60
2018-09-02T06:47:57.579Z,14.13
2018-09-02T06:50:33.628Z,14.27
2018-09-02T06:53:03.909Z,14.39
2018-09-02T06:55:32.850Z,14.50
2018-09-02T06:58:03.505Z,14.62
2018-09-02T07:00:33.391Z,14.68
2018-09-02T07:03:07.731Z,14.73
2018-09-02T07:05:40.410Z,14.76
2018-09-02T07:08:16.175Z,14.80
2018-09-02T07:10:45.221Z,14.90
2018-09-02T07:13:15.063Z,14.98
2018-09-02T07:15:49.771Z,15.03
2018-09-02T07:18:23.626Z,15.09
2018-09-02T07:20:53.017Z,15.18
2018-09-02T07:23:23.000Z,15.27
2018-09-02T07:25:54.738Z,15.36
2018-09-02T07:28:24.928Z,15.43
2018-09-02T07:31:00.590Z,15.47
2018-09-02T07:33:29.552Z,15.51
2018-09-02T07:38:35.517Z,15.67
2018-09-02T07:41:06.614Z,15.78
2018-09-02T07:43:36.420Z,15.85
2018-09-02T07:46:06.291Z,15.89
2018-09-02T07:48:36.611Z,15.94
2018-09-02T07:51:15.776Z,16.02
2018-09-02T07:53:58.978Z,16.07
2018-09-02T07:56:30.044Z,16.15
2018-09-02T07:59:02.845Z,16.21
2018-09-02T08:01:32.895Z,16.26
2018-09-02T08:04:11.698Z,16.26
2018-09-02T08:06:46.279Z,16.36
2018-09-02T08:09:25.454Z,16.42
2018-09-02T08:11:58.627Z,16.50
2018-09-02T08:14:33.838Z,16.53
2018-09-02T08:17:04.912Z,16.61
2018-09-02T08:22:25.154Z,16.75
2018-09-02T08:25:00.229Z,16.83
2018-09-02T08:27:35.682Z,16.91
2018-09-02T08:30:06.159Z,16.98
2018-09-02T08:32:34.960Z,17.00
2018-09-02T08:35:13.529Z,17.02
2018-09-02T08:40:22.447Z,17.21
2018-09-02T08:45:52.336Z,17.35
2018-09-02T08:51:14.968Z,17.48
2018-09-02T08:53:56.041Z,17.56
2018-09-02T08:56:44.801Z,17.58
2018-09-02T08:59:21.230Z,17.65
2018-09-02T09:01:50.643Z,17.70
2018-09-02T09:04:21.186Z,17.68
2018-09-02T09:06:50.359Z,17.82
2018-09-02T09:09:22.725Z,17.89
2018-09-02T09:11:55.762Z,17.97
2018-09-02T09:14:26.606Z,17.97
2018-09-02T09:16:59.170Z,18.05
2018-09-02T09:22:18.070Z,18.21
2018-09-02T09:24:46.908Z,18.30
2018-09-02T09:27:27.283Z,18.35
2018-09-02T09:29:56.228Z,18.39
2018-09-02T09:32:25.616Z,18.43
2018-09-02T09:34:54.675Z,18.51
2018-09-02T09:37:23.914Z,18.67
2018-09-02T09:40:08.738Z,18.76
2018-09-02T09:42:41.822Z,18.91
2018-09-02T09:48:06.726Z,19.09
2018-09-02T09:50:35.898Z,19.08
2018-09-02T09:53:09.602Z,19.03
2018-09-02T09:55:45.762Z,19.09
2018-09-02T09:58:14.786Z,19.09
2018-09-02T10:00:49.635Z,19.27
2018-09-02T10:03:20.100Z,19.34
2018-09-02T10:05:57.001Z,19.22
2018-09-02T10:08:35.078Z,19.39
2018-09-02T10:11:04.534Z,19.40
2018-09-02T10:13:34.892Z,19.48
2018-09-02T10:16:10.897Z,19.52
2018-09-02T10:18:40.238Z,19.54
2018-09-02T10:21:09.923Z,19.64
2018-09-02T10:23:52.361Z,19.69
2018-09-02T10:26:23.203Z,19.71
2018-09-02T10:28:53.355Z,19.69
2018-09-02T10:31:26.166Z,19.88
2018-09-02T10:36:35.238Z,19.57
2018-09-02T10:39:15.720Z,19.87
2018-09-02T10:41:53.319Z,19.92
2018-09-02T10:44:22.315Z,20.00
2018-09-02T10:46:58.735Z,20.05
2018-09-02T10:49:45.155Z,19.90
2018-09-02T10:52:14.134Z,20.11
2018-09-02T10:54:46.325Z,20.10
2018-09-02T10:57:26.463Z,20.20
2018-09-02T11:02:43.136Z,20.22
2018-09-02T11:05:13.882Z,20.25
2018-09-02T11:07:43.846Z,20.34
2018-09-02T11:12:57.419Z,20.40
2018-09-02T11:15:27.231Z,20.53
2018-09-02T11:17:58.082Z,20.56
2018-09-02T11:20:30.742Z,20.59
2018-09-02T11:22:59.626Z,20.65
2018-09-02T11:28:09.630Z,20.59
2018-09-02T11:30:38.896Z,20.60
2018-09-02T11:33:09.190Z,20.61
2018-09-02T11:35:44.554Z,20.67
2018-09-02T11:38:13.870Z,20.69
2018-09-02T11:46:11.545Z,20.76
2018-09-02T11:48:41.070Z,20.76
2018-09-02T11:51:23.446Z,20.82
2018-09-02T11:53:52.862Z,20.84
2018-09-02T11:56:27.735Z,20.85
2018-09-02T11:58:59.394Z,20.96
2018-09-02T12:01:29.233Z,20.62
2018-09-02T12:03:58.117Z,21.02
2018-09-02T12:06:32.631Z,21.08
2018-09-02T12:09:01.728Z,20.73
2018-09-02T12:11:37.109Z,21.09
2018-09-02T12:14:23.846Z,21.09
2018-09-02T12:16:54.407Z,21.15
2018-09-02T12:19:23.707Z,21.18
2018-09-02T12:24:28.234Z,21.22
2018-09-02T12:26:58.441Z,21.14
2018-09-02T12:29:27.697Z,21.17
2018-09-02T12:32:02.124Z,21.21
2018-09-02T12:34:31.176Z,21.26
2018-09-02T12:37:03.868Z,21.22
2018-09-02T12:39:34.018Z,21.24
2018-09-02T12:42:09.522Z,21.36
2018-09-02T12:47:44.650Z,21.42
2018-09-02T12:50:14.294Z,21.46
2018-09-02T12:52:55.463Z,21.44
2018-09-02T12:55:24.525Z,21.31
2018-09-02T12:57:55.110Z,21.31
2018-09-02T13:00:35.530Z,21.37
2018-09-02T13:03:09.177Z,21.41
2018-09-02T13:08:28.668Z,21.38
2018-09-02T13:11:06.656Z,21.44
2018-09-02T13:13:38.348Z,21.44
2018-09-02T13:16:16.076Z,21.46
2018-09-02T13:18:54.210Z,21.52
2018-09-02T13:21:40.365Z,21.53
2018-09-02T13:24:17.736Z,21.60
2018-09-02T13:26:56.755Z,21.62
2018-09-02T13:29:34.445Z,21.49
2018-09-02T13:32:03.502Z,21.52
2018-09-02T13:34:35.515Z,21.56
2018-09-02T13:37:07.533Z,21.56
2018-09-02T13:39:42.009Z,21.60
2018-09-02T13:44:50.526Z,21.52
2018-09-02T13:47:21.717Z,21.51
2018-09-02T13:49:52.017Z,21.51
2018-09-02T13:52:21.990Z,21.49
2018-09-02T13:54:51.095Z,21.46
2018-09-02T13:57:25.986Z,21.53
2018-09-02T13:59:56.108Z,21.58
2018-09-02T14:05:12.331Z,21.64
2018-09-02T14:07:42.340Z,21.56
2018-09-02T14:10:25.071Z,21.55
2018-09-02T14:12:57.074Z,21.52
2018-09-02T14:15:26.619Z,21.45
2018-09-02T14:17:56.692Z,21.48
2018-09-02T14:20:31.752Z,21.52
2018-09-02T14:23:01.978Z,21.52
2018-09-02T14:28:32.747Z,21.60
2018-09-02T14:31:01.688Z,21.61
2018-09-02T14:36:20.866Z,21.62
2018-09-02T14:38:50.443Z,21.63
2018-09-02T14:41:19.426Z,21.54
2018-09-02T14:44:01.453Z,21.59
2018-09-02T14:46:30.874Z,21.60
2018-09-02T14:49:00.170Z,21.59
2018-09-02T14:51:46.090Z,21.64
2018-09-02T14:54:27.474Z,21.62
2018-09-02T14:57:04.261Z,21.63
2018-09-02T14:59:33.486Z,21.63
2018-09-02T15:02:03.311Z,21.56
2018-09-02T15:04:33.185Z,21.61
2018-09-02T15:09:42.112Z,21.62
2018-09-02T15:15:00.314Z,21.54
2018-09-02T15:17:29.142Z,21.34
2018-09-02T15:20:02.378Z,21.57
2018-09-02T15:22:39.462Z,21.56
2018-09-02T15:25:08.702Z,21.50
2018-09-02T15:27:49.611Z,21.50
2018-09-02T15:30:27.854Z,21.46
2018-09-02T15:33:10.658Z,21.46
2018-09-02T15:35:43.190Z,21.43
2018-09-02T15:38:13.774Z,20.88
2018-09-02T15:40:50.002Z,21.35
2018-09-02T15:43:19.678Z,21.29
2018-09-02T15:48:39.734Z,21.31
2018-09-02T15:51:10.935Z,21.32
2018-09-02T15:53:41.991Z,21.27
2018-09-02T15:56:19.811Z,21.30
2018-09-02T15:58:59.872Z,21.40
2018-09-02T16:01:29.227Z,21.50
2018-09-02T16:06:37.966Z,21.59
2018-09-02T16:11:48.814Z,21.54
2018-09-02T16:14:23.273Z,21.48
2018-09-02T16:16:52.127Z,21.41
2018-09-02T16:19:28.566Z,21.42
2018-09-02T16:21:58.006Z,21.48
2018-09-02T16:24:39.162Z,21.37
2018-09-02T16:27:13.406Z,21.28
2018-09-02T16:29:44.266Z,21.18
2018-09-02T16:32:24.119Z,21.13
2018-09-02T16:34:54.878Z,21.06
2018-09-02T16:37:24.074Z,20.98
2018-09-02T16:40:02.799Z,20.97
2018-09-02T16:42:37.935Z,20.97
2018-09-02T18:03:24.116Z,18.33
2018-09-02T18:05:54.921Z,18.20
2018-09-02T18:08:27.004Z,18.08
2018-09-02T18:10:56.086Z,17.99
2018-09-02T18:13:27.261Z,17.88
2018-09-02T18:15:55.819Z,17.80
2018-09-02T18:18:25.505Z,17.71
2018-09-02T18:20:54.088Z,17.59
2018-09-02T18:23:23.204Z,17.49
2018-09-02T18:25:52.438Z,17.39
2018-09-02T18:28:29.860Z,17.29
2018-09-02T18:30:59.782Z,16.93
2018-09-02T18:33:29.644Z,17.14
2018-09-02T18:35:59.896Z,16.87
2018-09-02T18:38:31.990Z,16.99
2018-09-02T18:41:00.794Z,16.91
2018-09-02T18:43:33.156Z,16.81
2018-09-02T18:46:04.641Z,16.72
2018-09-02T18:48:34.277Z,16.65
2018-09-02T18:51:05.312Z,16.58
2018-09-02T18:53:34.333Z,16.50
2018-09-02T18:56:04.161Z,16.44
2018-09-02T18:58:34.188Z,16.37
2018-09-02T19:01:07.323Z,16.31
2018-09-02T19:03:36.397Z,16.23
2018-09-02T19:06:07.806Z,16.16
2018-09-02T19:08:36.513Z,15.86
2018-09-02T19:11:05.115Z,16.04
2018-09-02T19:13:33.845Z,15.95
2018-09-02T19:16:02.364Z,15.89
2018-09-02T19:18:30.915Z,15.85
2018-09-02T19:21:00.154Z,15.62
2018-09-02T19:23:28.744Z,15.72
2018-09-02T19:25:58.290Z,15.67
2018-09-02T19:28:26.886Z,15.62
2018-09-02T19:30:55.490Z,14.97
2018-09-02T19:33:23.984Z,15.50
2018-09-02T19:35:52.711Z,15.43
2018-09-02T19:38:21.218Z,15.38
2018-09-02T19:40:50.186Z,14.99
2018-09-02T19:43:18.651Z,15.29
2018-09-02T19:45:47.266Z,15.26
2018-09-02T19:48:15.798Z,15.22
2018-09-02T19:50:44.287Z,15.16
2018-09-02T19:53:13.175Z,15.10
2018-09-02T19:55:41.700Z,15.06
2018-09-02T19:58:10.379Z,15.01
2018-09-02T20:00:38.916Z,14.96
2018-09-02T20:03:07.688Z,14.91
2018-09-02T20:05:36.321Z,14.88
2018-09-02T20:08:05.167Z,14.81
2018-09-02T20:10:33.734Z,14.77
2018-09-02T20:13:02.344Z,14.73
2018-09-02T20:15:31.154Z,14.67
2018-09-02T20:17:59.890Z,14.64
2018-09-02T20:20:28.578Z,14.02
2018-09-02T20:22:57.220Z,14.57
2018-09-02T20:25:25.893Z,14.55
2018-09-02T20:27:54.385Z,14.51
2018-09-02T20:30:23.097Z,14.45
2018-09-02T20:32:51.723Z,14.41
2018-09-02T20:35:20.234Z,14.37
2018-09-02T20:37:48.882Z,14.33
2018-09-02T20:40:17.370Z,14.31
2018-09-02T20:42:46.077Z,14.29
2018-09-02T20:45:14.689Z,14.25
2018-09-02T20:47:43.178Z,14.22
2018-09-02T20:50:11.780Z,14.19
2018-09-02T20:52:40.364Z,14.15
2018-09-02T20:55:09.318Z,13.81
2018-09-02T20:57:38.184Z,14.07
2018-09-02T21:00:07.534Z,14.04
2018-09-02T21:02:36.859Z,14.00
2018-09-02T21:05:05.888Z,13.41
2018-09-02T21:07:34.493Z,13.95
2018-09-02T21:10:03.471Z,13.91
2018-09-02T21:12:32.314Z,13.88
2018-09-02T21:15:00.974Z,13.83
2018-09-02T21:17:29.630Z,13.81
2018-09-02T21:19:58.138Z,13.79
2018-09-02T21:22:26.938Z,13.45
2018-09-02T21:24:55.518Z,13.72
2018-09-02T21:27:24.369Z,13.42
2018-09-02T21:29:52.894Z,13.69
2018-09-02T21:32:21.578Z,13.68
2018-09-02T21:34:50.216Z,13.67
2018-09-02T21:37:18.696Z,13.65
2018-09-02T21:39:47.313Z,13.61
2018-09-02T21:42:15.832Z,13.56
2018-09-02T21:44:44.574Z,13.52
2018-09-02T21:47:13.156Z,13.49
2018-09-02T21:49:41.863Z,13.50
2018-09-02T21:52:10.338Z,13.49
2018-09-02T21:54:38.942Z,13.47
2018-09-02T21:57:07.502Z,12.94
2018-09-02T21:59:36.119Z,13.40
2018-09-02T22:02:04.898Z,13.37
2018-09-02T22:04:33.370Z,13.34
2018-09-02T22:07:02.106Z,12.93
2018-09-02T22:09:30.706Z,13.33
2018-09-02T22:11:59.270Z,13.32
2018-09-02T22:14:27.758Z,13.33
2018-09-02T22:16:56.262Z,13.32
2018-09-02T22:19:25.019Z,13.03
2018-09-02T22:21:53.499Z,13.28
2018-09-02T22:24:22.207Z,13.26
2018-09-02T22:26:50.784Z,13.21
2018-09-02T22:29:19.487Z,13.17
2018-09-02T22:31:47.970Z,13.14
2018-09-02T22:34:16.532Z,13.12
2018-09-02T22:36:45.130Z,12.97
2018-09-02T22:39:13.698Z,13.08
2018-09-02T22:41:42.560Z,13.06
2018-09-02T22:44:11.190Z,13.04
2018-09-02T22:46:39.715Z,13.02
2018-09-02T22:49:08.207Z,13.02
2018-09-02T22:51:36.729Z,13.00
2018-09-02T22:54:05.314Z,12.99
2018-09-02T22:56:33.936Z,12.98
2018-09-02T22:59:02.618Z,12.97
2018-09-02T23:01:31.086Z,12.95
2018-09-02T23:03:59.681Z,12.92
2018-09-02T23:06:29.119Z,12.89
2018-09-02T23:08:57.669Z,12.88
2018-09-02T23:11:26.181Z,12.86
2018-09-02T23:13:54.723Z,12.85
2018-09-02T23:16:23.552Z,12.82
2018-09-02T23:18:52.047Z,12.82
2018-09-02T23:21:20.699Z,12.81
2018-09-02T23:23:49.261Z,12.81
2018-09-02T23:26:17.881Z,12.84
2018-09-02T23:28:46.438Z,12.87
2018-09-02T23:31:14.990Z,12.86
2018-09-02T23:33:43.570Z,12.59
2018-09-02T23:36:12.154Z,12.85
2018-09-02T23:38:40.927Z,12.85
2018-09-02T23:41:09.470Z,12.82
2018-09-02T23:43:38.060Z,12.83
2018-09-02T23:46:06.998Z,12.82
2018-09-02T23:48:35.474Z,12.81
2018-09-02T23:51:04.074Z,12.54
2018-09-02T23:53:32.854Z,12.76
2018-09-02T23:56:01.490Z,12.74
2018-09-02T23:58:30.076Z,12.72
